createdAt,value
2022-10-31T00:00:58.696Z,0
2022-10-31T00:01:55.736Z,0
2022-10-31T00:02:55.611Z,0
2022-10-31T00:03:56.056Z,0
2022-10-31T00:04:55.780Z,0
2022-10-31T00:05:55.661Z,0
2022-10-31T00:06:55.712Z,0
2022-10-31T00:07:55.677Z,0
2022-10-31T00:08:55.938Z,0
2022-10-31T00:09:55.674Z,0
2022-10-31T00:10:55.601Z,0
2022-10-31T00:11:58.877Z,0
2022-10-31T00:12:55.663Z,0
2022-10-31T00:13:56.030Z,0
2022-10-31T00:14:55.687Z,0
2022-10-31T00:15:55.722Z,0
2022-10-31T00:16:55.754Z,0
2022-10-31T00:17:55.926Z,0
2022-10-31T00:18:56.012Z,0
2022-10-31T00:19:55.647Z,0
2022-10-31T00:20:55.593Z,0
2022-10-31T00:21:55.599Z,0
2022-10-31T00:22:55.578Z,0
2022-10-31T00:23:56.024Z,0
2022-10-31T00:24:55.659Z,0
2022-10-31T00:25:55.584Z,0
2022-10-31T00:26:55.715Z,0
2022-10-31T00:27:59.003Z,0
2022-10-31T00:28:55.949Z,0
2022-10-31T00:29:55.789Z,0
2022-10-31T00:30:55.786Z,0
2022-10-31T00:31:55.747Z,0
2022-10-31T00:32:55.616Z,0
2022-10-31T00:33:55.983Z,0
2022-10-31T00:34:55.674Z,0
2022-10-31T00:35:55.759Z,0
2022-10-31T00:36:55.675Z,0
2022-10-31T00:37:55.582Z,0
2022-10-31T00:39:01.628Z,0
2022-10-31T00:39:55.662Z,0
2022-10-31T00:40:55.610Z,0
2022-10-31T00:41:55.562Z,0
2022-10-31T00:42:55.616Z,0
2022-10-31T00:43:56.016Z,0
2022-10-31T00:44:55.692Z,0
2022-10-31T00:45:58.357Z,0
2022-10-31T00:46:55.679Z,0
2022-10-31T00:47:55.568Z,0
2022-10-31T00:48:56.023Z,0
2022-10-31T00:49:58.582Z,0
2022-10-31T00:50:55.738Z,0
2022-10-31T00:51:55.755Z,0
2022-10-31T00:52:55.721Z,0
2022-10-31T00:53:55.936Z,0
2022-10-31T00:54:55.644Z,0
2022-10-31T00:55:55.705Z,0
2022-10-31T00:56:55.726Z,0
2022-10-31T00:57:55.797Z,0
2022-10-31T00:58:56.183Z,0
2022-10-31T00:59:55.768Z,0
2022-10-31T01:00:58.667Z,0
2022-10-31T01:01:55.956Z,0
2022-10-31T01:02:55.607Z,0
2022-10-31T01:03:56.064Z,0
2022-10-31T01:04:55.736Z,0
2022-10-31T01:05:55.601Z,0
2022-10-31T01:06:55.610Z,0
2022-10-31T01:07:55.733Z,0
2022-10-31T01:08:55.950Z,0
2022-10-31T01:09:55.707Z,0
2022-10-31T01:10:55.703Z,0
2022-10-31T01:11:58.795Z,0
2022-10-31T01:12:55.800Z,0
2022-10-31T01:13:55.944Z,0
2022-10-31T01:14:55.786Z,0
2022-10-31T01:15:55.742Z,0
2022-10-31T01:16:55.792Z,0
2022-10-31T01:17:55.900Z,0
2022-10-31T01:18:56.065Z,0
2022-10-31T01:19:55.588Z,0
2022-10-31T01:20:55.602Z,0
2022-10-31T01:21:55.590Z,0
2022-10-31T01:22:58.709Z,0
2022-10-31T01:23:55.950Z,0
2022-10-31T01:24:55.725Z,0
2022-10-31T01:25:55.686Z,0
2022-10-31T01:26:55.577Z,0
2022-10-31T01:27:55.583Z,0
2022-10-31T01:28:55.993Z,0
2022-10-31T01:29:55.588Z,0
2022-10-31T01:30:55.592Z,0
2022-10-31T01:31:55.575Z,0
2022-10-31T01:32:55.568Z,0
2022-10-31T01:34:01.620Z,0
2022-10-31T01:34:55.668Z,0
2022-10-31T01:35:55.667Z,0
2022-10-31T01:36:55.672Z,0
2022-10-31T01:37:55.779Z,0
2022-10-31T01:38:55.935Z,0
2022-10-31T01:39:55.574Z,0
2022-10-31T01:40:55.601Z,0
2022-10-31T01:41:55.641Z,0
2022-10-31T01:42:55.690Z,0
2022-10-31T01:43:56.018Z,0
2022-10-31T01:44:58.701Z,0
2022-10-31T01:45:55.657Z,0
2022-10-31T01:46:55.712Z,0
2022-10-31T01:47:55.877Z,0
2022-10-31T01:48:56.016Z,0
2022-10-31T01:49:55.674Z,0
2022-10-31T01:50:55.592Z,0
2022-10-31T01:51:55.588Z,0
2022-10-31T01:52:55.696Z,0
2022-10-31T01:53:56.015Z,0
2022-10-31T01:54:55.639Z,0
2022-10-31T01:55:58.561Z,0
2022-10-31T01:56:55.824Z,0
2022-10-31T01:57:55.599Z,0
2022-10-31T01:58:56.008Z,0
2022-10-31T01:59:55.780Z,0
2022-10-31T02:00:55.803Z,0
2022-10-31T02:01:55.848Z,0
2022-10-31T02:02:55.596Z,0
2022-10-31T02:03:56.015Z,0
2022-10-31T02:04:55.778Z,0
2022-10-31T02:05:55.703Z,0
2022-10-31T02:06:58.620Z,0
2022-10-31T02:07:55.760Z,0
2022-10-31T02:08:56.035Z,0
2022-10-31T02:09:55.642Z,0
2022-10-31T02:10:55.593Z,0
2022-10-31T02:11:55.560Z,0
2022-10-31T02:12:55.591Z,0
2022-10-31T02:13:56.011Z,0
2022-10-31T02:14:55.807Z,0
2022-10-31T02:15:55.775Z,0
2022-10-31T02:16:55.725Z,0
2022-10-31T02:17:59.085Z,0
2022-10-31T02:18:55.931Z,0
2022-10-31T02:19:55.745Z,0
2022-10-31T02:20:55.767Z,0
2022-10-31T02:21:55.882Z,0
2022-10-31T02:22:55.673Z,0
2022-10-31T02:23:55.939Z,0
2022-10-31T02:24:55.589Z,0
2022-10-31T02:25:55.582Z,0
2022-10-31T02:26:55.710Z,0
2022-10-31T02:27:55.729Z,0
2022-10-31T02:29:01.620Z,0
2022-10-31T02:29:55.691Z,0
2022-10-31T02:30:55.722Z,0
2022-10-31T02:31:55.772Z,0
2022-10-31T02:32:55.694Z,0
2022-10-31T02:33:55.939Z,0
2022-10-31T02:34:55.555Z,0
2022-10-31T02:35:55.578Z,0
2022-10-31T02:36:55.590Z,0
2022-10-31T02:37:55.566Z,0
2022-10-31T02:38:56.020Z,0
2022-10-31T02:39:58.721Z,0
2022-10-31T02:40:55.754Z,0
2022-10-31T02:41:55.650Z,0
2022-10-31T02:42:55.729Z,0
2022-10-31T02:43:55.946Z,0
2022-10-31T02:44:55.680Z,0
2022-10-31T02:45:55.672Z,0
2022-10-31T02:46:55.731Z,0
2022-10-31T02:47:58.205Z,0
2022-10-31T02:48:55.977Z,0
2022-10-31T02:49:55.649Z,0
2022-10-31T02:50:58.595Z,0
2022-10-31T02:51:55.778Z,0
2022-10-31T02:52:55.700Z,0
2022-10-31T02:53:56.098Z,0
2022-10-31T02:54:55.688Z,0
2022-10-31T02:55:55.583Z,0
2022-10-31T02:56:55.595Z,0
2022-10-31T02:57:55.587Z,0
2022-10-31T02:58:56.011Z,0
2022-10-31T02:59:55.693Z,0
2022-10-31T03:00:55.678Z,0
2022-10-31T03:01:58.808Z,0
2022-10-31T03:02:55.766Z,0
2022-10-31T03:03:56.018Z,0
2022-10-31T03:04:55.789Z,0
2022-10-31T03:05:55.589Z,0
2022-10-31T03:06:55.673Z,0
2022-10-31T03:07:55.594Z,0
2022-10-31T03:08:56.065Z,0
2022-10-31T03:09:55.758Z,0
2022-10-31T03:10:55.652Z,0
2022-10-31T03:11:55.734Z,0
2022-10-31T03:12:58.625Z,0
2022-10-31T03:13:55.989Z,0
2022-10-31T03:14:55.764Z,0
2022-10-31T03:15:55.603Z,0
2022-10-31T03:16:55.703Z,0
2022-10-31T03:17:55.784Z,0
2022-10-31T03:18:55.948Z,0
2022-10-31T03:19:55.703Z,0
2022-10-31T03:20:55.803Z,0
2022-10-31T03:21:55.664Z,0
2022-10-31T03:22:55.695Z,0
2022-10-31T03:24:01.585Z,0
2022-10-31T03:24:55.638Z,0
2022-10-31T03:25:55.686Z,0
2022-10-31T03:26:55.738Z,0
2022-10-31T03:27:55.837Z,0
2022-10-31T03:28:56.019Z,0
2022-10-31T03:29:55.716Z,0
2022-10-31T03:30:55.588Z,0
2022-10-31T03:31:55.660Z,0
2022-10-31T03:32:55.720Z,0
2022-10-31T03:33:55.947Z,0
2022-10-31T03:34:58.567Z,0
2022-10-31T03:35:55.645Z,0
2022-10-31T03:36:55.637Z,0
2022-10-31T03:37:55.576Z,0
2022-10-31T03:38:56.053Z,0
2022-10-31T03:39:55.650Z,0
2022-10-31T03:40:55.572Z,0
2022-10-31T03:41:55.557Z,0
2022-10-31T03:42:55.598Z,0
2022-10-31T03:43:56.026Z,0
2022-10-31T03:44:57.826Z,0
2022-10-31T03:45:58.711Z,0
2022-10-31T03:46:55.681Z,0
2022-10-31T03:47:55.669Z,0
2022-10-31T03:48:56.144Z,0
2022-10-31T03:49:55.769Z,0
2022-10-31T03:50:55.725Z,0
2022-10-31T03:51:55.582Z,0
2022-10-31T03:52:55.702Z,0
2022-10-31T03:53:56.020Z,0
2022-10-31T03:54:55.653Z,0
2022-10-31T03:55:55.568Z,0
2022-10-31T03:56:58.687Z,0
2022-10-31T03:57:55.760Z,0
2022-10-31T03:58:55.702Z,0
2022-10-31T03:59:55.588Z,0
2022-10-31T04:00:55.596Z,0
2022-10-31T04:01:55.743Z,0
2022-10-31T04:02:55.593Z,0
2022-10-31T04:03:56.046Z,0
2022-10-31T04:04:55.758Z,0
2022-10-31T04:05:55.680Z,0
2022-10-31T04:06:55.653Z,0
2022-10-31T04:07:58.689Z,0
2022-10-31T04:08:55.963Z,0
2022-10-31T04:09:55.760Z,0
2022-10-31T04:10:55.565Z,0
2022-10-31T04:11:55.582Z,0
2022-10-31T04:12:55.596Z,0
2022-10-31T04:13:56.099Z,0
2022-10-31T04:14:55.581Z,0
2022-10-31T04:15:55.586Z,0
2022-10-31T04:16:55.565Z,0
2022-10-31T04:17:55.593Z,0
2022-10-31T04:19:01.598Z,0
2022-10-31T04:19:55.774Z,0
2022-10-31T04:20:55.708Z,0
2022-10-31T04:21:55.577Z,0
2022-10-31T04:22:55.719Z,0
2022-10-31T04:23:55.959Z,0
2022-10-31T04:24:55.577Z,0
2022-10-31T04:25:55.673Z,0
2022-10-31T04:26:55.692Z,0
2022-10-31T04:27:55.792Z,0
2022-10-31T04:28:55.945Z,0
2022-10-31T04:29:58.718Z,0
2022-10-31T04:30:55.777Z,0
2022-10-31T04:31:55.697Z,0
2022-10-31T04:32:55.718Z,0
2022-10-31T04:33:56.077Z,0
2022-10-31T04:34:55.647Z,0
2022-10-31T04:35:55.597Z,0
2022-10-31T04:36:55.697Z,0
2022-10-31T04:37:55.572Z,0
2022-10-31T04:38:55.999Z,0
2022-10-31T04:39:55.748Z,0
2022-10-31T04:40:58.583Z,0
2022-10-31T04:41:55.675Z,0
2022-10-31T04:42:55.728Z,0
2022-10-31T04:43:55.953Z,0
2022-10-31T04:44:55.789Z,0
2022-10-31T04:45:55.645Z,0
2022-10-31T04:46:55.737Z,0
2022-10-31T04:47:55.701Z,0
2022-10-31T04:48:56.029Z,0
2022-10-31T04:49:55.778Z,0
2022-10-31T04:50:55.761Z,0
2022-10-31T04:51:58.581Z,0
2022-10-31T04:52:55.771Z,0
2022-10-31T04:53:55.779Z,0
2022-10-31T04:54:55.577Z,0
2022-10-31T04:55:55.591Z,0
2022-10-31T04:56:55.666Z,0
2022-10-31T04:57:55.618Z,0
2022-10-31T04:58:55.718Z,0
2022-10-31T04:59:55.695Z,0
2022-10-31T05:00:55.662Z,0
2022-10-31T05:01:55.738Z,0
2022-10-31T05:02:59.028Z,0
2022-10-31T05:03:55.940Z,0
2022-10-31T05:04:55.780Z,0
2022-10-31T05:05:55.637Z,0
2022-10-31T05:06:55.644Z,0
2022-10-31T05:07:55.694Z,0
2022-10-31T05:08:55.950Z,0
2022-10-31T05:09:55.623Z,0
2022-10-31T05:10:58.171Z,0
2022-10-31T05:11:55.670Z,0
2022-10-31T05:12:55.731Z,0
2022-10-31T05:14:01.596Z,0
2022-10-31T05:14:55.670Z,0
2022-10-31T05:15:55.698Z,0
2022-10-31T05:16:55.597Z,0
2022-10-31T05:17:55.605Z,0
2022-10-31T05:18:56.023Z,0
2022-10-31T05:19:55.574Z,0
2022-10-31T05:20:55.585Z,0
2022-10-31T05:21:55.589Z,0
2022-10-31T05:22:55.571Z,0
2022-10-31T05:23:56.025Z,0
2022-10-31T05:24:58.701Z,0
2022-10-31T05:25:55.769Z,0
2022-10-31T05:26:55.656Z,0
2022-10-31T05:27:55.724Z,0
2022-10-31T05:28:55.948Z,0
2022-10-31T05:29:55.877Z,0
2022-10-31T05:30:55.724Z,0
2022-10-31T05:31:55.735Z,0
2022-10-31T05:32:55.789Z,0
2022-10-31T05:33:56.153Z,0
2022-10-31T05:34:55.603Z,0
2022-10-31T05:35:58.713Z,0
2022-10-31T05:36:55.775Z,0
2022-10-31T05:37:55.598Z,0
2022-10-31T05:38:56.031Z,0
2022-10-31T05:39:55.661Z,0
2022-10-31T05:40:55.641Z,0
2022-10-31T05:41:55.558Z,0
2022-10-31T05:42:55.610Z,0
2022-10-31T05:43:56.026Z,0
2022-10-31T05:44:55.647Z,0
2022-10-31T05:45:55.735Z,0
2022-10-31T05:46:58.588Z,0
2022-10-31T05:47:55.699Z,0
2022-10-31T05:48:58.720Z,0
2022-10-31T05:49:55.706Z,0
2022-10-31T05:50:55.591Z,0
2022-10-31T05:51:55.698Z,0
2022-10-31T05:52:55.601Z,0
2022-10-31T05:53:56.026Z,0
2022-10-31T05:54:55.683Z,0
2022-10-31T05:55:55.579Z,0
2022-10-31T05:56:55.732Z,0
2022-10-31T05:57:59.163Z,0
2022-10-31T05:58:55.953Z,0
2022-10-31T05:59:55.763Z,0
2022-10-31T06:00:55.690Z,0
2022-10-31T06:01:55.775Z,0
2022-10-31T06:02:55.970Z,0
2022-10-31T06:03:55.996Z,0
2022-10-31T06:04:55.678Z,0
2022-10-31T06:05:55.679Z,0
2022-10-31T06:06:55.696Z,0
2022-10-31T06:07:55.590Z,0
2022-10-31T06:09:01.640Z,0
2022-10-31T06:09:55.765Z,0
2022-10-31T06:10:55.770Z,0
2022-10-31T06:11:55.750Z,0
2022-10-31T06:12:55.679Z,0
2022-10-31T06:13:55.622Z,0
2022-10-31T06:14:55.599Z,0
2022-10-31T06:15:55.688Z,0
2022-10-31T06:16:55.739Z,0
2022-10-31T06:17:55.737Z,0
2022-10-31T06:18:55.960Z,0
2022-10-31T06:19:58.565Z,0
2022-10-31T06:20:55.808Z,0
2022-10-31T06:21:55.747Z,0
2022-10-31T06:22:55.670Z,0
2022-10-31T06:23:55.957Z,0
2022-10-31T06:24:55.696Z,0
2022-10-31T06:25:55.562Z,0
2022-10-31T06:26:55.574Z,0
2022-10-31T06:27:55.579Z,0
2022-10-31T06:28:58.755Z,0
2022-10-31T06:29:55.795Z,0
2022-10-31T06:30:58.582Z,0
2022-10-31T06:31:55.682Z,0
2022-10-31T06:32:55.680Z,0
2022-10-31T06:33:55.949Z,0
2022-10-31T06:34:55.787Z,0
2022-10-31T06:35:55.724Z,0
2022-10-31T06:36:55.720Z,0
2022-10-31T06:37:55.692Z,0
2022-10-31T06:38:55.695Z,0
2022-10-31T06:39:55.786Z,0
2022-10-31T06:40:55.661Z,0
2022-10-31T06:41:58.690Z,0
2022-10-31T06:42:55.752Z,0
2022-10-31T06:43:55.598Z,0
2022-10-31T06:44:55.731Z,0
2022-10-31T06:45:55.758Z,0
2022-10-31T06:46:55.675Z,0
2022-10-31T06:48:15.682Z,0
2022-10-31T06:48:56.020Z,0
2022-10-31T06:49:55.684Z,0
2022-10-31T06:50:59.527Z,0
2022-10-31T06:51:55.711Z,0
2022-10-31T06:52:58.770Z,0
2022-10-31T06:53:55.996Z,0
2022-10-31T06:54:55.737Z,0
2022-10-31T06:55:55.716Z,0
2022-10-31T06:56:55.717Z,0
2022-10-31T06:57:58.870Z,0
2022-10-31T06:58:55.945Z,0
2022-10-31T06:59:55.582Z,0
2022-10-31T07:00:55.613Z,0
2022-10-31T07:01:55.880Z,0
2022-10-31T07:02:55.761Z,0
2022-10-31T07:04:01.638Z,0
2022-10-31T07:04:55.776Z,0
2022-10-31T07:05:55.790Z,0
2022-10-31T07:06:55.756Z,0
2022-10-31T07:07:55.687Z,0
2022-10-31T07:08:55.945Z,0
2022-10-31T07:09:55.594Z,0
2022-10-31T07:10:55.591Z,0
2022-10-31T07:11:55.599Z,0
2022-10-31T07:12:55.725Z,0
2022-10-31T07:13:55.949Z,0
2022-10-31T07:14:58.561Z,0
2022-10-31T07:15:55.671Z,0
2022-10-31T07:16:55.594Z,0
2022-10-31T07:17:55.683Z,0
2022-10-31T07:18:56.071Z,0
2022-10-31T07:19:55.783Z,0
2022-10-31T07:20:55.709Z,0
2022-10-31T07:21:55.722Z,0
2022-10-31T07:22:55.707Z,0
2022-10-31T07:23:56.015Z,0
2022-10-31T07:24:55.662Z,0
2022-10-31T07:25:58.716Z,0
2022-10-31T07:26:55.824Z,0
2022-10-31T07:27:55.674Z,0
2022-10-31T07:28:56.020Z,0
2022-10-31T07:29:55.769Z,0
2022-10-31T07:30:55.729Z,0
2022-10-31T07:31:55.726Z,0
2022-10-31T07:32:55.629Z,0
2022-10-31T07:33:56.026Z,0
2022-10-31T07:34:55.716Z,0
2022-10-31T07:35:55.719Z,0
2022-10-31T07:36:58.582Z,0
2022-10-31T07:37:55.718Z,0
2022-10-31T07:38:56.076Z,0
2022-10-31T07:39:55.790Z,0
2022-10-31T07:40:55.789Z,0
2022-10-31T07:41:55.745Z,0
2022-10-31T07:42:55.730Z,0
2022-10-31T07:43:56.085Z,0
2022-10-31T07:44:57.659Z,0
2022-10-31T07:45:55.704Z,0
2022-10-31T07:46:55.681Z,0
2022-10-31T07:47:59.153Z,0
2022-10-31T07:48:56.165Z,0
2022-10-31T07:49:55.763Z,0
2022-10-31T07:50:55.769Z,0
2022-10-31T07:51:55.683Z,0
2022-10-31T07:52:55.717Z,0
2022-10-31T07:53:55.945Z,0
2022-10-31T07:54:55.723Z,0
2022-10-31T07:55:55.661Z,0
2022-10-31T07:56:55.562Z,0
2022-10-31T07:57:55.651Z,87.07421875
2022-10-31T07:59:01.607Z,86.4052734375
2022-10-31T07:59:55.664Z,86.029296875
2022-10-31T08:00:55.826Z,85.5107421875
2022-10-31T08:01:55.583Z,84.6845703125
2022-10-31T08:02:55.651Z,84.294921875
2022-10-31T08:03:55.954Z,84.255859375
2022-10-31T08:04:58.575Z,84.109375
2022-10-31T08:05:55.727Z,84.1591796875
2022-10-31T08:06:55.773Z,83.5947265625
2022-10-31T08:07:55.694Z,83.0517578125
2022-10-31T08:08:55.989Z,82.7919921875
2022-10-31T08:09:58.613Z,82.294921875
2022-10-31T08:10:55.719Z,81.892578125
2022-10-31T08:11:55.746Z,81.640625
2022-10-31T08:12:56.429Z,81.0458984375
2022-10-31T08:13:55.944Z,82.009765625
2022-10-31T08:14:55.801Z,82.111328125
2022-10-31T08:15:55.679Z,82.193359375
2022-10-31T08:16:55.594Z,81.9990234375
2022-10-31T08:17:55.724Z,81.8291015625
2022-10-31T08:18:55.953Z,81.4267578125
2022-10-31T08:19:55.659Z,81.099609375
2022-10-31T08:20:58.592Z,80.880859375
2022-10-31T08:21:55.668Z,80.744140625
2022-10-31T08:22:55.721Z,80.560546875
2022-10-31T08:23:55.959Z,80.3740234375
2022-10-31T08:24:55.743Z,80.630859375
2022-10-31T08:25:55.688Z,81.111328125
2022-10-31T08:26:55.593Z,81.404296875
2022-10-31T08:27:55.716Z,81.8525390625
2022-10-31T08:28:55.994Z,82.09765625
2022-10-31T08:29:55.790Z,82.1982421875
2022-10-31T08:30:55.687Z,82.701171875
2022-10-31T08:31:58.707Z,83.12109375
2022-10-31T08:32:55.699Z,83.5595703125
2022-10-31T08:33:56.089Z,83.8662109375
2022-10-31T08:34:55.680Z,84.5087890625
2022-10-31T08:35:55.693Z,84.97265625
2022-10-31T08:36:55.695Z,85.0126953125
2022-10-31T08:37:55.725Z,85.5322265625
2022-10-31T08:39:01.459Z,85.5830078125
2022-10-31T08:39:55.678Z,86.0029296875
2022-10-31T08:40:55.732Z,86.8916015625
2022-10-31T08:41:55.580Z,0
2022-10-31T08:42:58.596Z,0
2022-10-31T08:43:55.959Z,0
2022-10-31T08:44:55.811Z,0
2022-10-31T08:45:55.669Z,0
2022-10-31T08:46:55.594Z,0
2022-10-31T08:47:55.591Z,0
2022-10-31T08:48:55.955Z,0
2022-10-31T08:49:55.653Z,0
2022-10-31T08:50:55.781Z,0
2022-10-31T08:51:55.796Z,0
2022-10-31T08:53:04.871Z,0
2022-10-31T08:54:01.650Z,0
2022-10-31T08:54:55.674Z,0
2022-10-31T08:55:55.676Z,0
2022-10-31T08:56:55.698Z,0
2022-10-31T08:57:55.760Z,0
2022-10-31T08:58:55.952Z,0
2022-10-31T08:59:55.584Z,0
2022-10-31T09:00:55.777Z,0
2022-10-31T09:01:55.820Z,0
2022-10-31T09:02:55.602Z,0
2022-10-31T09:03:55.952Z,0
2022-10-31T09:04:58.721Z,0
2022-10-31T09:05:55.771Z,0
2022-10-31T09:07:20.595Z,0
2022-10-31T09:07:55.568Z,0
2022-10-31T09:08:56.131Z,0
2022-10-31T09:09:55.682Z,0
2022-10-31T09:10:55.602Z,0
2022-10-31T09:11:55.585Z,0
2022-10-31T09:12:55.701Z,0
2022-10-31T09:13:56.037Z,0
2022-10-31T09:14:55.752Z,0
2022-10-31T09:15:58.573Z,0
2022-10-31T09:16:55.672Z,0
2022-10-31T09:17:55.724Z,0
2022-10-31T09:18:56.070Z,0
2022-10-31T09:19:55.661Z,0
2022-10-31T09:20:55.588Z,0
2022-10-31T09:21:55.577Z,0
2022-10-31T09:22:55.569Z,0
2022-10-31T09:23:56.031Z,0
2022-10-31T09:24:55.798Z,0
2022-10-31T09:25:55.659Z,0
2022-10-31T09:26:58.699Z,0
2022-10-31T09:27:55.669Z,0
2022-10-31T09:28:56.070Z,86.0009765625
2022-10-31T09:29:55.661Z,85.38671875
2022-10-31T09:30:55.715Z,85.0947265625
2022-10-31T09:31:55.654Z,84.85546875
2022-10-31T09:32:55.667Z,84.22265625
2022-10-31T09:33:56.023Z,83.6083984375
2022-10-31T09:34:55.788Z,83.0576171875
2022-10-31T09:35:55.696Z,82.8662109375
2022-10-31T09:36:55.587Z,82.3779296875
2022-10-31T09:37:59.045Z,81.9931640625
2022-10-31T09:38:55.998Z,81.4453125
2022-10-31T09:39:55.690Z,81.7666015625
2022-10-31T09:40:55.710Z,81.17578125
2022-10-31T09:41:57.078Z,80.5615234375
2022-10-31T09:42:55.669Z,79.837890625
2022-10-31T09:43:55.994Z,79.2578125
2022-10-31T09:44:55.665Z,79.072265625
2022-10-31T09:45:55.797Z,78.5537109375
2022-10-31T09:46:55.775Z,78.060546875
2022-10-31T09:47:55.568Z,77.482421875
2022-10-31T09:49:01.627Z,76.7353515625
2022-10-31T09:49:55.870Z,76.0126953125
2022-10-31T09:50:55.668Z,75.7568359375
2022-10-31T09:51:55.652Z,76.107421875
2022-10-31T09:52:55.605Z,76.3173828125
2022-10-31T09:53:56.125Z,75.51953125
2022-10-31T09:54:55.737Z,75.2470703125
2022-10-31T09:55:55.732Z,74.9873046875
2022-10-31T09:56:55.770Z,74.31640625
2022-10-31T09:57:55.683Z,73.501953125
2022-10-31T09:58:56.026Z,72.4990234375
2022-10-31T09:59:55.592Z,72.34375
2022-10-31T10:00:55.736Z,72.1962890625
2022-10-31T10:01:55.777Z,71.9267578125
2022-10-31T10:02:55.691Z,70.990234375
2022-10-31T10:03:56.194Z,70.50390625
2022-10-31T10:04:58.720Z,70.5693359375
2022-10-31T10:05:55.662Z,70.5126953125
2022-10-31T10:06:55.656Z,70.33984375
2022-10-31T10:07:55.733Z,70.013671875
2022-10-31T10:08:55.950Z,70.033203125
2022-10-31T10:09:55.675Z,70.1162109375
2022-10-31T10:10:55.586Z,70.01953125
2022-10-31T10:11:55.567Z,69.66796875
2022-10-31T10:12:55.714Z,69.6669921875
2022-10-31T10:13:55.976Z,69.6025390625
2022-10-31T10:14:55.662Z,69.5712890625
2022-10-31T10:15:58.572Z,69.6982421875
2022-10-31T10:16:55.695Z,69.521484375
2022-10-31T10:17:55.589Z,69.2939453125
2022-10-31T10:18:56.070Z,69.0087890625
2022-10-31T10:19:55.794Z,69.2353515625
2022-10-31T10:20:55.772Z,69.212890625
2022-10-31T10:21:55.721Z,69.0517578125
2022-10-31T10:22:55.598Z,69.2724609375
2022-10-31T10:23:56.021Z,69.478515625
2022-10-31T10:24:55.658Z,69.4697265625
2022-10-31T10:25:55.577Z,69.3720703125
2022-10-31T10:26:58.589Z,69.19140625
2022-10-31T10:27:55.779Z,69.46875
2022-10-31T10:28:55.948Z,69.7373046875
2022-10-31T10:29:55.801Z,69.2109375
2022-10-31T10:30:55.777Z,68.744140625
2022-10-31T10:31:55.701Z,68.357421875
2022-10-31T10:32:55.574Z,67.923828125
2022-10-31T10:33:56.025Z,67.85546875
2022-10-31T10:34:55.671Z,67.8828125
2022-10-31T10:35:55.734Z,67.625
2022-10-31T10:36:55.800Z,67.94921875
2022-10-31T10:37:58.954Z,67.7041015625
2022-10-31T10:38:55.961Z,67.0986328125
2022-10-31T10:39:55.700Z,66.474609375
2022-10-31T10:40:55.599Z,66.7119140625
2022-10-31T10:41:55.668Z,66.7392578125
2022-10-31T10:42:55.746Z,66.5205078125
2022-10-31T10:43:55.960Z,65.8623046875
2022-10-31T10:44:55.706Z,65.486328125
2022-10-31T10:45:55.718Z,65.33984375
2022-10-31T10:46:55.596Z,64.90625
2022-10-31T10:47:55.653Z,64.361328125
2022-10-31T10:49:01.626Z,63.96484375
2022-10-31T10:49:55.692Z,63.5810546875
2022-10-31T10:50:55.706Z,63.8359375
2022-10-31T10:52:13.131Z,63.4736328125
2022-10-31T10:52:55.703Z,63.7255859375
2022-10-31T10:53:55.936Z,64.1630859375
2022-10-31T10:54:55.660Z,64.14453125
2022-10-31T10:55:55.591Z,64.5810546875
2022-10-31T10:56:55.578Z,64.6435546875
2022-10-31T10:57:55.585Z,64.6171875
2022-10-31T10:58:56.026Z,64.55078125
2022-10-31T10:59:58.548Z,64.5458984375
2022-10-31T11:00:55.821Z,64.453125
2022-10-31T11:01:55.575Z,64.15234375
2022-10-31T11:02:55.593Z,63.8017578125
2022-10-31T11:03:56.010Z,64.01171875
2022-10-31T11:04:55.677Z,64.138671875
2022-10-31T11:05:55.600Z,64.0546875
2022-10-31T11:06:55.633Z,63.2744140625
2022-10-31T11:07:55.610Z,63.9384765625
2022-10-31T11:08:56.013Z,63.7958984375
2022-10-31T11:09:55.649Z,62.88671875
2022-10-31T11:10:58.657Z,62.9912109375
2022-10-31T11:11:55.662Z,62.8642578125
2022-10-31T11:12:55.698Z,62.1767578125
2022-10-31T11:13:56.018Z,61.6005859375
2022-10-31T11:14:55.760Z,60.7998046875
2022-10-31T11:15:55.686Z,60.609375
2022-10-31T11:16:55.595Z,60.482421875
2022-10-31T11:17:55.726Z,59.896484375
2022-10-31T11:18:55.987Z,59.828125
2022-10-31T11:19:55.757Z,59.5947265625
2022-10-31T11:20:55.593Z,59.7197265625
2022-10-31T11:21:58.563Z,59.6201171875
2022-10-31T11:22:55.697Z,59.38671875
2022-10-31T11:23:56.021Z,59.384765625
2022-10-31T11:24:55.679Z,59.361328125
2022-10-31T11:25:55.716Z,59.3134765625
2022-10-31T11:26:55.709Z,59.4482421875
2022-10-31T11:27:55.702Z,59.201171875
2022-10-31T11:28:56.017Z,59.3046875
2022-10-31T11:30:00.654Z,59.1494140625
2022-10-31T11:30:55.600Z,59.5634765625
2022-10-31T11:31:55.581Z,59.5908203125
2022-10-31T11:32:58.883Z,59.6552734375
2022-10-31T11:33:55.946Z,60.88671875
2022-10-31T11:34:55.683Z,61.3662109375
2022-10-31T11:35:58.960Z,61.6396484375
2022-10-31T11:36:55.761Z,61.732421875
2022-10-31T11:37:55.575Z,61.4912109375
2022-10-31T11:38:55.943Z,61.060546875
2022-10-31T11:39:55.584Z,60.806640625
2022-10-31T11:40:55.590Z,60.572265625
2022-10-31T11:41:55.593Z,59.96484375
2022-10-31T11:42:55.571Z,59.578125
2022-10-31T11:44:01.605Z,59.896484375
2022-10-31T11:44:55.702Z,60.3759765625
2022-10-31T11:45:55.735Z,61.0185546875
2022-10-31T11:46:55.639Z,60.810546875
2022-10-31T11:47:59.542Z,61.1630859375
2022-10-31T11:48:56.015Z,61.41015625
2022-10-31T11:49:55.700Z,62.1171875
2022-10-31T11:50:55.607Z,62.7470703125
2022-10-31T11:51:55.579Z,62.7236328125
2022-10-31T11:54:04.678Z,61.478515625
2022-10-31T11:55:04.247Z,61.2001953125
2022-10-31T11:56:04.247Z,60.6640625
2022-10-31T11:57:04.225Z,60.5537109375
2022-10-31T11:58:04.715Z,60.8544921875
2022-10-31T11:59:10.372Z,61.0537109375
2022-10-31T12:00:04.526Z,60.943359375
2022-10-31T12:01:04.366Z,61.0556640625
2022-10-31T12:02:04.410Z,61.8359375
2022-10-31T12:03:04.479Z,61.791015625
2022-10-31T12:04:04.685Z,61.8876953125
2022-10-31T12:05:04.218Z,61.1689453125
2022-10-31T12:06:04.244Z,60.9599609375
2022-10-31T12:07:04.337Z,60.595703125
2022-10-31T12:08:04.774Z,60.080078125
2022-10-31T12:09:04.724Z,60.064453125
2022-10-31T12:10:07.302Z,59.501953125
2022-10-31T12:11:04.464Z,59.34765625
2022-10-31T12:12:04.296Z,58.6884765625
2022-10-31T12:13:04.478Z,57.7958984375
2022-10-31T12:14:04.699Z,57.7255859375
2022-10-31T12:15:04.291Z,57.400390625
2022-10-31T12:16:05.382Z,56.763671875
2022-10-31T12:17:04.382Z,55.7177734375
2022-10-31T12:18:04.441Z,54.865234375
2022-10-31T12:19:04.794Z,53.779296875
2022-10-31T12:20:04.451Z,54.03515625
2022-10-31T12:21:07.330Z,55.3212890625
2022-10-31T12:22:04.326Z,55.2001953125
2022-10-31T12:23:04.567Z,55.083984375
2022-10-31T12:24:04.608Z,54.568359375
2022-10-31T12:25:04.361Z,54.2548828125
2022-10-31T12:26:04.221Z,53.7890625
2022-10-31T12:27:04.242Z,53.537109375
2022-10-31T12:28:04.241Z,53.4296875
2022-10-31T12:29:04.678Z,53.859375
2022-10-31T12:30:04.287Z,53.69140625
2022-10-31T12:31:04.246Z,53.869140625
2022-10-31T12:32:07.240Z,53.9501953125
2022-10-31T12:33:04.319Z,53.7978515625
2022-10-31T12:34:04.673Z,54.0322265625
2022-10-31T12:35:04.426Z,53.974609375
2022-10-31T12:36:04.366Z,54.7822265625
2022-10-31T12:37:04.356Z,54.7216796875
2022-10-31T12:38:04.271Z,54.0283203125
2022-10-31T12:39:04.676Z,54.3544921875
2022-10-31T12:40:04.356Z,55.13671875
2022-10-31T12:41:04.240Z,55.1806640625
2022-10-31T12:42:04.236Z,54.9365234375
2022-10-31T12:43:07.256Z,54.833984375
2022-10-31T12:44:04.682Z,54.9150390625
2022-10-31T12:45:04.298Z,54.5107421875
2022-10-31T12:46:04.318Z,54.5849609375
2022-10-31T12:47:04.323Z,54.41015625
2022-10-31T12:48:04.430Z,53.6708984375
2022-10-31T12:49:04.819Z,52.97265625
2022-10-31T12:50:04.265Z,52.40625
2022-10-31T12:51:04.221Z,53.03515625
2022-10-31T12:52:04.244Z,52.755859375
2022-10-31T12:53:04.652Z,52.4140625
2022-10-31T12:54:10.381Z,52.0078125
2022-10-31T12:55:04.356Z,51.7431640625
2022-10-31T12:56:04.331Z,51.572265625
2022-10-31T12:57:04.436Z,51.2548828125
2022-10-31T12:58:04.744Z,51.087890625
2022-10-31T12:59:04.599Z,51.4892578125
2022-10-31T13:00:04.224Z,51.7666015625
2022-10-31T13:01:04.489Z,51.990234375
2022-10-31T13:02:04.359Z,52.6904296875
2022-10-31T13:03:04.678Z,53.12890625